sensor_id;sensor_type;location;lat;lon;timestamp;pressure;altitude;pressure_sealevel;temperature;humidity
64908;BME280;64365;-1.756;110.040;2022-10-16T00:00:19;100849.53;;;14.46;78.79
64908;BME280;64365;-1.756;110.040;2022-10-16T00:02:46;100850.66;;;14.49;78.33
64908;BME280;64365;-1.756;110.040;2022-10-16T00:05:12;100855.25;;;14.45;78.91
64908;BME280;64365;-1.756;110.040;2022-10-16T00:07:39;100846.09;;;14.46;78.31
64908;BME280;64365;-1.756;110.040;2022-10-16T00:10:08;100853.31;;;14.49;77.96
64908;BME280;64365;-1.756;110.040;2022-10-16T00:12:34;100852.16;;;14.54;77.25
64908;BME280;64365;-1.756;110.040;2022-10-16T00:15:01;100857.16;;;14.48;78.03
64908;BME280;64365;-1.756;110.040;2022-10-16T00:17:29;100852.97;;;14.51;77.77
64908;BME280;64365;-1.756;110.040;2022-10-16T00:19:55;100858.66;;;14.56;77.13
64908;BME280;64365;-1.756;110.040;2022-10-16T00:22:22;100840.72;;;14.49;76.84
64908;BME280;64365;-1.756;110.040;2022-10-16T00:24:49;100844.50;;;14.56;76.50
64908;BME280;64365;-1.756;110.040;2022-10-16T00:27:17;100847.56;;;14.54;77.03
64908;BME280;64365;-1.756;110.040;2022-10-16T00:29:43;100829.25;;;14.56;76.41
64908;BME280;64365;-1.756;110.040;2022-10-16T00:32:10;100834.56;;;14.63;75.92
64908;BME280;64365;-1.756;110.040;2022-10-16T00:34:36;100839.16;;;14.59;75.88
64908;BME280;64365;-1.756;110.040;2022-10-16T00:37:03;100842.22;;;14.61;75.56
64908;BME280;64365;-1.756;110.040;2022-10-16T00:39:29;100848.72;;;14.64;75.48
64908;BME280;64365;-1.756;110.040;2022-10-16T00:41:56;100848.72;;;14.64;75.63
64908;BME280;64365;-1.756;110.040;2022-10-16T00:44:44;100838.38;;;14.70;74.72
64908;BME280;64365;-1.756;110.040;2022-10-16T00:47:13;100833.03;;;14.70;74.32
64908;BME280;64365;-1.756;110.040;2022-10-16T00:49:41;100844.47;;;14.74;75.19
64908;BME280;64365;-1.756;110.040;2022-10-16T00:52:09;100844.00;;;14.86;73.74
64908;BME280;64365;-1.756;110.040;2022-10-16T00:54:36;100844.38;;;14.88;73.29
64908;BME280;64365;-1.756;110.040;2022-10-16T00:57:05;100845.56;;;14.80;74.04
64908;BME280;64365;-1.756;110.040;2022-10-16T00:59:33;100850.56;;;14.78;74.79
64908;BME280;64365;-1.756;110.040;2022-10-16T01:02:04;100839.78;;;14.89;73.70
64908;BME280;64365;-1.756;110.040;2022-10-16T01:04:33;100841.34;;;14.82;74.28
64908;BME280;64365;-1.756;110.040;2022-10-16T01:07:09;100838.66;;;14.90;73.70
64908;BME280;64365;-1.756;110.040;2022-10-16T01:09:47;100842.88;;;14.87;74.16
64908;BME280;64365;-1.756;110.040;2022-10-16T01:12:22;100839.00;;;14.95;73.76
64908;BME280;64365;-1.756;110.040;2022-10-16T01:14:52;100824.41;;;15.00;73.37
64908;BME280;64365;-1.756;110.040;2022-10-16T01:17:26;100822.13;;;15.02;73.12
64908;BME280;64365;-1.756;110.040;2022-10-16T01:20:07;100829.75;;;15.04;72.80
64908;BME280;64365;-1.756;110.040;2022-10-16T01:22:43;100831.72;;;14.96;73.77
64908;BME280;64365;-1.756;110.040;2022-10-16T01:25:18;100832.84;;;14.95;74.27
64908;BME280;64365;-1.756;110.040;2022-10-16T01:27:51;100830.19;;;14.95;74.75
64908;BME280;64365;-1.756;110.040;2022-10-16T01:30:21;100828.28;;;14.92;75.11
64908;BME280;64365;-1.756;110.040;2022-10-16T01:32:52;100821.41;;;14.91;74.86
64908;BME280;64365;-1.756;110.040;2022-10-16T01:35:23;100824.81;;;15.02;74.79
64908;BME280;64365;-1.756;110.040;2022-10-16T01:37:54;100822.16;;;14.95;75.26
64908;BME280;64365;-1.756;110.040;2022-10-16T01:40:26;100824.88;;;14.91;75.20
64908;BME280;64365;-1.756;110.040;2022-10-16T01:42:56;100838.56;;;15.01;74.93
64908;BME280;64365;-1.756;110.040;2022-10-16T01:45:27;100820.22;;;14.99;75.36
64908;BME280;64365;-1.756;110.040;2022-10-16T01:47:55;100820.94;;;15.03;75.71
64908;BME280;64365;-1.756;110.040;2022-10-16T01:50:23;100826.00;;;14.94;76.11
64908;BME280;64365;-1.756;110.040;2022-10-16T01:52:52;100834.38;;;14.96;76.51
64908;BME280;64365;-1.756;110.040;2022-10-16T01:55:24;100827.53;;;14.91;77.00
64908;BME280;64365;-1.756;110.040;2022-10-16T01:57:55;100843.22;;;14.89;77.51
64908;BME280;64365;-1.756;110.040;2022-10-16T02:00:23;100840.94;;;14.88;78.08
64908;BME280;64365;-1.756;110.040;2022-10-16T02:02:53;100848.22;;;14.80;78.58
64908;BME280;64365;-1.756;110.040;2022-10-16T02:05:23;100850.56;;;14.78;79.03
64908;BME280;64365;-1.756;110.040;2022-10-16T02:07:52;100845.97;;;14.78;78.85
64908;BME280;64365;-1.756;110.040;2022-10-16T02:10:18;100864.31;;;14.76;79.40
64908;BME280;64365;-1.756;110.040;2022-10-16T02:12:50;100862.06;;;14.68;79.84
64908;BME280;64365;-1.756;110.040;2022-10-16T02:15:19;100857.09;;;14.70;79.95
64908;BME280;64365;-1.756;110.040;2022-10-16T02:17:46;100871.56;;;14.76;79.77
64908;BME280;64365;-1.756;110.040;2022-10-16T02:20:12;100867.41;;;14.75;79.81
64908;BME280;64365;-1.756;110.040;2022-10-16T02:22:42;100868.56;;;14.67;80.01
64908;BME280;64365;-1.756;110.040;2022-10-16T02:25:12;100875.09;;;14.55;81.31
64908;BME280;64365;-1.756;110.040;2022-10-16T02:27:45;100876.25;;;14.54;80.99
64908;BME280;64365;-1.756;110.040;2022-10-16T02:30:20;100878.91;;;14.57;80.65
64908;BME280;64365;-1.756;110.040;2022-10-16T02:32:48;100876.63;;;14.48;80.79
64908;BME280;64365;-1.756;110.040;2022-10-16T02:35:17;100882.38;;;14.47;80.68
64908;BME280;64365;-1.756;110.040;2022-10-16T02:37:46;100886.59;;;14.48;81.02
64908;BME280;64365;-1.756;110.040;2022-10-16T02:40:13;100880.88;;;14.42;81.57
64908;BME280;64365;-1.756;110.040;2022-10-16T02:42:41;100890.00;;;14.45;81.24
64908;BME280;64365;-1.756;110.040;2022-10-16T02:45:09;100895.75;;;14.43;81.10
64908;BME280;64365;-1.756;110.040;2022-10-16T02:47:38;100886.22;;;14.42;81.48
64908;BME280;64365;-1.756;110.040;2022-10-16T02:50:05;100888.91;;;14.39;81.79
64908;BME280;64365;-1.756;110.040;2022-10-16T02:52:32;100888.13;;;14.38;81.86
64908;BME280;64365;-1.756;110.040;2022-10-16T02:54:58;100890.00;;;14.45;81.74
64908;BME280;64365;-1.756;110.040;2022-10-16T02:57:25;100891.19;;;14.44;81.51
64908;BME280;64365;-1.756;110.040;2022-10-16T02:59:52;100890.06;;;14.30;82.08
64908;BME280;64365;-1.756;110.040;2022-10-16T03:02:18;100892.31;;;14.43;81.91
64908;BME280;64365;-1.756;110.040;2022-10-16T03:04:46;100888.91;;;14.39;82.11
64908;BME280;64365;-1.756;110.040;2022-10-16T03:07:13;100888.50;;;14.37;81.92
64908;BME280;64365;-1.756;110.040;2022-10-16T03:09:39;100890.78;;;14.38;82.36
64908;BME280;64365;-1.756;110.040;2022-10-16T03:12:06;100879.69;;;14.47;81.86
64908;BME280;64365;-1.756;110.040;2022-10-16T03:14:33;100875.19;;;14.33;82.64
64908;BME280;64365;-1.756;110.040;2022-10-16T03:16:59;100875.94;;;14.37;82.07
64908;BME280;64365;-1.756;110.040;2022-10-16T03:19:26;100874.34;;;14.47;82.17
64908;BME280;64365;-1.756;110.040;2022-10-16T03:21:54;100878.16;;;14.46;81.77
64908;BME280;64365;-1.756;110.040;2022-10-16T03:24:20;100886.22;;;14.42;82.11
64908;BME280;64365;-1.756;110.040;2022-10-16T03:26:47;100883.56;;;14.35;82.40
64908;BME280;64365;-1.756;110.040;2022-10-16T03:29:13;100888.16;;;14.35;82.56
64908;BME280;64365;-1.756;110.040;2022-10-16T03:31:40;100894.59;;;14.41;82.43
64908;BME280;64365;-1.756;110.040;2022-10-16T03:34:07;100891.19;;;14.37;82.47
64908;BME280;64365;-1.756;110.040;2022-10-16T03:36:33;100897.31;;;14.37;82.76
64908;BME280;64365;-1.756;110.040;2022-10-16T03:39:02;100905.34;;;14.37;82.73
64908;BME280;64365;-1.756;110.040;2022-10-16T03:41:29;100914.06;;;14.45;82.32
64908;BME280;64365;-1.756;110.040;2022-10-16T03:43:55;100909.91;;;14.37;82.40
64908;BME280;64365;-1.756;110.040;2022-10-16T03:46:22;100913.00;;;14.31;82.65
64908;BME280;64365;-1.756;110.040;2022-10-16T03:48:48;100912.22;;;14.27;83.36
64908;BME280;64365;-1.756;110.040;2022-10-16T03:51:15;100913.78;;;14.25;83.79
64908;BME280;64365;-1.756;110.040;2022-10-16T03:53:41;100911.47;;;14.23;83.85
64908;BME280;64365;-1.756;110.040;2022-10-16T03:56:09;100911.81;;;14.36;82.88
64908;BME280;64365;-1.756;110.040;2022-10-16T03:58:36;100916.06;;;14.26;83.64
64908;BME280;64365;-1.756;110.040;2022-10-16T04:01:03;100911.84;;;14.29;83.28
64908;BME280;64365;-1.756;110.040;2022-10-16T04:03:29;100917.56;;;14.27;83.27
64908;BME280;64365;-1.756;110.040;2022-10-16T04:05:56;100920.66;;;14.22;83.66
64908;BME280;64365;-1.756;110.040;2022-10-16T04:08:23;100933.22;;;14.29;83.50
64908;BME280;64365;-1.756;110.040;2022-10-16T04:10:49;100913.38;;;14.26;83.74
64908;BME280;64365;-1.756;110.040;2022-10-16T04:13:17;100925.22;;;14.29;83.58
64908;BME280;64365;-1.756;110.040;2022-10-16T04:15:44;100930.56;;;14.22;84.20
64908;BME280;64365;-1.756;110.040;2022-10-16T04:18:11;100934.78;;;14.26;83.97
64908;BME280;64365;-1.756;110.040;2022-10-16T04:20:38;100935.53;;;14.27;83.98
64908;BME280;64365;-1.756;110.040;2022-10-16T04:23:04;100943.53;;;14.23;84.33
64908;BME280;64365;-1.756;110.040;2022-10-16T04:25:31;100942.00;;;14.26;84.07
64908;BME280;64365;-1.756;110.040;2022-10-16T04:27:57;100946.22;;;14.27;84.15
64908;BME280;64365;-1.756;110.040;2022-10-16T04:30:25;100958.06;;;14.22;84.52
64908;BME280;64365;-1.756;110.040;2022-10-16T04:32:52;100953.88;;;14.21;84.45
64908;BME280;64365;-1.756;110.040;2022-10-16T04:35:20;100963.03;;;14.20;84.66
64908;BME280;64365;-1.756;110.040;2022-10-16T04:37:47;100968.75;;;14.15;85.03
64908;BME280;64365;-1.756;110.040;2022-10-16T04:40:14;100976.38;;;14.17;85.07
64908;BME280;64365;-1.756;110.040;2022-10-16T04:42:40;100963.78;;;14.24;84.62
64908;BME280;64365;-1.756;110.040;2022-10-16T04:45:08;100979.84;;;14.17;85.31
64908;BME280;64365;-1.756;110.040;2022-10-16T04:47:36;100981.34;;;14.22;84.94
64908;BME280;64365;-1.756;110.040;2022-10-16T04:50:03;100979.06;;;14.13;85.17
64908;BME280;64365;-1.756;110.040;2022-10-16T04:52:30;100977.94;;;14.10;85.32
64908;BME280;64365;-1.756;110.040;2022-10-16T04:54:57;100978.69;;;14.11;85.63
64908;BME280;64365;-1.756;110.040;2022-10-16T04:57:27;100979.06;;;14.06;85.90
64908;BME280;64365;-1.756;110.040;2022-10-16T04:59:53;100985.94;;;14.00;86.14
64908;BME280;64365;-1.756;110.040;2022-10-16T05:02:20;100989.00;;;13.98;86.51
64908;BME280;64365;-1.756;110.040;2022-10-16T05:04:48;101003.13;;;14.02;85.83
64908;BME280;64365;-1.756;110.040;2022-10-16T05:07:14;100998.91;;;14.08;86.10
64908;BME280;64365;-1.756;110.040;2022-10-16T05:09:41;101009.63;;;14.05;86.08
64908;BME280;64365;-1.756;110.040;2022-10-16T05:12:08;101016.09;;;14.04;86.34
64908;BME280;64365;-1.756;110.040;2022-10-16T05:14:34;101018.41;;;13.98;86.85
64908;BME280;64365;-1.756;110.040;2022-10-16T05:17:01;101027.19;;;14.02;86.53
64908;BME280;64365;-1.756;110.040;2022-10-16T05:19:27;101025.66;;;14.01;86.52
64908;BME280;64365;-1.756;110.040;2022-10-16T05:21:56;101027.94;;;13.95;86.89
64908;BME280;64365;-1.756;110.040;2022-10-16T05:24:22;101027.56;;;13.97;86.99
64908;BME280;64365;-1.756;110.040;2022-10-16T05:26:49;101027.94;;;13.95;86.70
64908;BME280;64365;-1.756;110.040;2022-10-16T05:29:16;101034.06;;;13.92;87.43
64908;BME280;64365;-1.756;110.040;2022-10-16T05:31:43;101034.78;;;13.89;87.64
64908;BME280;64365;-1.756;110.040;2022-10-16T05:34:09;101047.78;;;13.94;87.50
64908;BME280;64365;-1.756;110.040;2022-10-16T05:36:36;101041.69;;;14.01;87.30
64908;BME280;64365;-1.756;110.040;2022-10-16T05:39:04;101052.00;;;13.95;87.53
64908;BME280;64365;-1.756;110.040;2022-10-16T05:41:31;101057.34;;;13.95;87.60
64908;BME280;64365;-1.756;110.040;2022-10-16T05:43:57;101046.66;;;13.95;87.48
64908;BME280;64365;-1.756;110.040;2022-10-16T05:46:24;101062.69;;;14.03;87.38
64908;BME280;64365;-1.756;110.040;2022-10-16T05:48:51;101057.34;;;13.95;87.54
64908;BME280;64365;-1.756;110.040;2022-10-16T05:51:18;101057.72;;;13.94;88.01
64908;BME280;64365;-1.756;110.040;2022-10-16T05:53:45;101068.41;;;13.94;88.44
64908;BME280;64365;-1.756;110.040;2022-10-16T05:56:13;101079.84;;;14.05;88.79
64908;BME280;64365;-1.756;110.040;2022-10-16T05:58:40;101083.66;;;13.93;89.36
64908;BME280;64365;-1.756;110.040;2022-10-16T06:01:10;101085.56;;;13.89;89.85
64908;BME280;64365;-1.756;110.040;2022-10-16T06:03:37;101085.16;;;13.84;90.25
64908;BME280;64365;-1.756;110.040;2022-10-16T06:06:08;101093.19;;;13.84;90.67
64908;BME280;64365;-1.756;110.040;2022-10-16T06:08:35;101104.25;;;13.82;91.26
64908;BME280;64365;-1.756;110.040;2022-10-16T06:11:02;101102.72;;;13.77;91.85
64908;BME280;64365;-1.756;110.040;2022-10-16T06:13:30;101096.19;;;13.68;92.49
64908;BME280;64365;-1.756;110.040;2022-10-16T06:15:58;101100.38;;;13.69;92.75
64908;BME280;64365;-1.756;110.040;2022-10-16T06:18:25;101095.06;;;13.69;92.99
64908;BME280;64365;-1.756;110.040;2022-10-16T06:20:52;101100.38;;;13.69;93.46
64908;BME280;64365;-1.756;110.040;2022-10-16T06:23:18;101093.09;;;13.55;94.42
64908;BME280;64365;-1.756;110.040;2022-10-16T06:25:45;101103.38;;;13.53;94.78
64908;BME280;64365;-1.756;110.040;2022-10-16T06:28:13;101092.72;;;13.56;95.45
64908;BME280;64365;-1.756;110.040;2022-10-16T06:30:41;101088.91;;;13.57;95.77
64908;BME280;64365;-1.756;110.040;2022-10-16T06:33:09;101098.09;;;13.63;95.13
64908;BME280;64365;-1.756;110.040;2022-10-16T06:35:35;101100.38;;;13.65;94.81
64908;BME280;64365;-1.756;110.040;2022-10-16T06:38:02;101113.75;;;13.69;94.23
64908;BME280;64365;-1.756;110.040;2022-10-16T06:40:29;101111.44;;;13.63;94.46
64908;BME280;64365;-1.756;110.040;2022-10-16T06:42:55;101109.50;;;13.57;95.45
64908;BME280;64365;-1.756;110.040;2022-10-16T06:45:22;101108.38;;;13.61;94.44
64908;BME280;64365;-1.756;110.040;2022-10-16T06:47:50;101107.22;;;13.59;94.97
64908;BME280;64365;-1.756;110.040;2022-10-16T06:50:16;101116.41;;;13.61;94.41
64908;BME280;64365;-1.756;110.040;2022-10-16T06:52:43;101113.31;;;13.59;95.34
64908;BME280;64365;-1.756;110.040;2022-10-16T06:55:09;101109.53;;;13.60;94.77
64908;BME280;64365;-1.756;110.040;2022-10-16T06:57:36;101109.91;;;13.59;95.27
64908;BME280;64365;-1.756;110.040;2022-10-16T07:00:03;101130.88;;;13.60;95.38
64908;BME280;64365;-1.756;110.040;2022-10-16T07:02:30;101128.66;;;13.77;93.94
64908;BME280;64365;-1.756;110.040;2022-10-16T07:04:58;101135.91;;;13.76;93.91
64908;BME280;64365;-1.756;110.040;2022-10-16T07:07:25;101141.25;;;13.80;93.33
64908;BME280;64365;-1.756;110.040;2022-10-16T07:09:52;101150.03;;;13.80;92.80
64908;BME280;64365;-1.756;110.040;2022-10-16T07:12:18;101150.03;;;13.77;92.75
64908;BME280;64365;-1.756;110.040;2022-10-16T07:14:45;101154.59;;;13.73;93.20
64908;BME280;64365;-1.756;110.040;2022-10-16T07:17:11;101160.72;;;13.80;93.00
64908;BME280;64365;-1.756;110.040;2022-10-16T07:19:38;101170.66;;;13.84;91.86
64908;BME280;64365;-1.756;110.040;2022-10-16T07:22:06;101169.13;;;13.79;92.53
64908;BME280;64365;-1.756;110.040;2022-10-16T07:24:35;101169.44;;;13.70;93.48
64908;BME280;64365;-1.756;110.040;2022-10-16T07:27:02;101184.75;;;13.84;92.10
64908;BME280;64365;-1.756;110.040;2022-10-16T07:29:29;101186.31;;;13.85;91.62
64908;BME280;64365;-1.756;110.040;2022-10-16T07:31:55;101196.63;;;13.90;90.83
64908;BME280;64365;-1.756;110.040;2022-10-16T07:34:22;101200.41;;;13.82;91.77
64908;BME280;64365;-1.756;110.040;2022-10-16T07:36:48;101199.72;;;14.00;90.42
64908;BME280;64365;-1.756;110.040;2022-10-16T07:39:17;101205.81;;;13.93;91.39
64908;BME280;64365;-1.756;110.040;2022-10-16T07:41:44;101217.28;;;14.04;89.56
64908;BME280;64365;-1.756;110.040;2022-10-16T07:44:11;101235.31;;;14.32;90.45
64908;BME280;64365;-1.756;110.040;2022-10-16T07:46:38;101230.38;;;14.49;90.26
64908;BME280;64365;-1.756;110.040;2022-10-16T07:49:05;101239.59;;;14.62;88.97
64908;BME280;64365;-1.756;110.040;2022-10-16T07:51:32;101243.47;;;14.87;89.00
64908;BME280;64365;-1.756;110.040;2022-10-16T07:53:58;101238.84;;;15.38;87.49
64908;BME280;64365;-1.756;110.040;2022-10-16T07:56:26;101244.53;;;15.69;82.21
64908;BME280;64365;-1.756;110.040;2022-10-16T07:58:53;101248.66;;;15.98;80.54
64908;BME280;64365;-1.756;110.040;2022-10-16T08:01:21;101250.84;;;16.18;78.95
64908;BME280;64365;-1.756;110.040;2022-10-16T08:03:49;101246.19;;;16.33;79.36
64908;BME280;64365;-1.756;110.040;2022-10-16T08:06:17;101253.69;;;16.60;76.80
64908;BME280;64365;-1.756;110.040;2022-10-16T08:08:44;101264.41;;;16.67;76.71
64908;BME280;64365;-1.756;110.040;2022-10-16T08:11:10;101270.47;;;16.75;77.05
64908;BME280;64365;-1.756;110.040;2022-10-16T08:13:38;101270.38;;;16.89;75.66
64908;BME280;64365;-1.756;110.040;2022-10-16T08:16:05;101273.06;;;16.86;75.65
64908;BME280;64365;-1.756;110.040;2022-10-16T08:18:33;101283.41;;;16.91;75.76
64908;BME280;64365;-1.756;110.040;2022-10-16T08:21:00;101283.84;;;16.82;75.67
64908;BME280;64365;-1.756;110.040;2022-10-16T08:23:27;101284.28;;;16.70;75.75
64908;BME280;64365;-1.756;110.040;2022-10-16T08:25:54;101282.44;;;16.59;76.45
64908;BME280;64365;-1.756;110.040;2022-10-16T08:28:22;101277.16;;;16.48;76.70
64908;BME280;64365;-1.756;110.040;2022-10-16T08:30:50;101287.84;;;16.56;77.67
64908;BME280;64365;-1.756;110.040;2022-10-16T08:33:19;101295.03;;;16.70;77.21
64908;BME280;64365;-1.756;110.040;2022-10-16T08:35:50;101289.19;;;16.89;76.37
64908;BME280;64365;-1.756;110.040;2022-10-16T08:38:17;101285.19;;;17.08;75.44
64908;BME280;64365;-1.756;110.040;2022-10-16T08:40:44;101287.03;;;17.19;75.76
64908;BME280;64365;-1.756;110.040;2022-10-16T08:43:28;101304.84;;;17.43;74.04
64908;BME280;64365;-1.756;110.040;2022-10-16T08:46:13;101309.38;;;17.54;74.36
64908;BME280;64365;-1.756;110.040;2022-10-16T08:48:44;101310.16;;;17.50;72.77
64908;BME280;64365;-1.756;110.040;2022-10-16T08:51:19;101313.25;;;17.49;73.28
64908;BME280;64365;-1.756;110.040;2022-10-16T08:53:49;101326.91;;;17.65;73.53
64908;BME280;64365;-1.756;110.040;2022-10-16T08:56:17;101308.78;;;17.73;72.70
64908;BME280;64365;-1.756;110.040;2022-10-16T08:58:45;101326.28;;;17.89;72.00
64908;BME280;64365;-1.756;110.040;2022-10-16T09:01:16;101330.63;;;17.79;70.78
64908;BME280;64365;-1.756;110.040;2022-10-16T09:03:55;101347.16;;;17.77;71.76
64908;BME280;64365;-1.756;110.040;2022-10-16T09:06:39;101345.97;;;17.82;71.79
64908;BME280;64365;-1.756;110.040;2022-10-16T09:09:28;101347.88;;;17.81;72.15
64908;BME280;64365;-1.756;110.040;2022-10-16T09:12:04;101348.69;;;17.78;71.70
64908;BME280;64365;-1.756;110.040;2022-10-16T09:14:43;101356.41;;;17.73;71.98
64908;BME280;64365;-1.756;110.040;2022-10-16T09:17:23;101356.41;;;17.73;71.84
64908;BME280;64365;-1.756;110.040;2022-10-16T09:19:56;101371.09;;;17.64;72.08
64908;BME280;64365;-1.756;110.040;2022-10-16T09:22:28;101374.16;;;17.63;72.45
64908;BME280;64365;-1.756;110.040;2022-10-16T09:24:59;101366.16;;;17.56;72.42
64908;BME280;64365;-1.756;110.040;2022-10-16T09:27:26;101376.59;;;17.50;73.19
64908;BME280;64365;-1.756;110.040;2022-10-16T09:29:53;101380.31;;;17.63;73.19
64908;BME280;64365;-1.756;110.040;2022-10-16T09:32:22;101379.31;;;17.84;71.84
64908;BME280;64365;-1.756;110.040;2022-10-16T09:34:52;101388.03;;;17.99;70.60
64908;BME280;64365;-1.756;110.040;2022-10-16T09:37:22;101377.53;;;18.12;70.89
64908;BME280;64365;-1.756;110.040;2022-10-16T09:39:51;101385.09;;;18.25;69.93
64908;BME280;64365;-1.756;110.040;2022-10-16T09:42:19;101382.06;;;18.23;69.83
64908;BME280;64365;-1.756;110.040;2022-10-16T09:44:48;101390.13;;;18.23;70.44
64908;BME280;64365;-1.756;110.040;2022-10-16T09:47:17;101400.25;;;18.42;68.37
64908;BME280;64365;-1.756;110.040;2022-10-16T09:49:54;101395.56;;;18.50;68.14
64908;BME280;64365;-1.756;110.040;2022-10-16T09:52:23;101395.28;;;18.72;68.34
64908;BME280;64365;-1.756;110.040;2022-10-16T09:54:51;101388.47;;;18.94;68.67
64908;BME280;64365;-1.756;110.040;2022-10-16T09:57:19;101400.56;;;19.10;66.51
64908;BME280;64365;-1.756;110.040;2022-10-16T09:59:47;101399.31;;;19.14;65.01
64908;BME280;64365;-1.756;110.040;2022-10-16T10:02:15;101397.97;;;19.02;65.49
64908;BME280;64365;-1.756;110.040;2022-10-16T10:04:48;101396.44;;;19.01;66.04
64908;BME280;64365;-1.756;110.040;2022-10-16T10:07:24;101397.03;;;19.13;66.69
64908;BME280;64365;-1.756;110.040;2022-10-16T10:09:52;101403.50;;;19.19;64.58
64908;BME280;64365;-1.756;110.040;2022-10-16T10:12:21;101404.00;;;19.10;64.19
64908;BME280;64365;-1.756;110.040;2022-10-16T10:14:51;101411.78;;;19.05;65.06
64908;BME280;64365;-1.756;110.040;2022-10-16T10:17:20;101412.66;;;18.98;66.11
64908;BME280;64365;-1.756;110.040;2022-10-16T10:19:52;101403.03;;;18.97;65.30
64908;BME280;64365;-1.756;110.040;2022-10-16T10:22:25;101413.50;;;18.91;65.26
64908;BME280;64365;-1.756;110.040;2022-10-16T10:25:21;101403.72;;;18.74;65.02
64908;BME280;64365;-1.756;110.040;2022-10-16T10:28:10;101421.41;;;18.75;66.21
64908;BME280;64365;-1.756;110.040;2022-10-16T10:30:48;101430.19;;;18.79;66.08
64908;BME280;64365;-1.756;110.040;2022-10-16T10:33:25;101433.00;;;18.72;65.69
64908;BME280;64365;-1.756;110.040;2022-10-16T10:36:01;101447.38;;;18.58;66.15
64908;BME280;64365;-1.756;110.040;2022-10-16T10:38:39;101442.56;;;18.42;66.91
64908;BME280;64365;-1.756;110.040;2022-10-16T10:41:20;101451.16;;;18.29;68.33
64908;BME280;64365;-1.756;110.040;2022-10-16T10:43:59;101449.16;;;18.37;69.46
64908;BME280;64365;-1.756;110.040;2022-10-16T10:46:32;101449.34;;;18.54;68.88
64908;BME280;64365;-1.756;110.040;2022-10-16T10:49:14;101443.38;;;18.69;68.38
64908;BME280;64365;-1.756;110.040;2022-10-16T10:51:50;101442.06;;;18.85;66.48
64908;BME280;64365;-1.756;110.040;2022-10-16T10:54:24;101451.63;;;18.86;64.59
64908;BME280;64365;-1.756;110.040;2022-10-16T10:56:57;101458.69;;;18.76;65.56
64908;BME280;64365;-1.756;110.040;2022-10-16T10:59:55;101456.06;;;18.73;65.68
64908;BME280;64365;-1.756;110.040;2022-10-16T11:02:32;101455.59;;;18.78;64.81
64908;BME280;64365;-1.756;110.040;2022-10-16T11:05:23;101473.28;;;18.79;65.10
64908;BME280;64365;-1.756;110.040;2022-10-16T11:07:58;101468.00;;;18.72;65.23
64908;BME280;64365;-1.756;110.040;2022-10-16T11:10:30;101472.88;;;18.80;63.76
64908;BME280;64365;-1.756;110.040;2022-10-16T11:13:10;101471.22;;;18.59;65.04
64908;BME280;64365;-1.756;110.040;2022-10-16T11:15:43;101476.94;;;18.61;64.51
64908;BME280;64365;-1.756;110.040;2022-10-16T11:18:16;101469.31;;;18.56;64.73
64908;BME280;64365;-1.756;110.040;2022-10-16T11:20:48;101483.16;;;18.58;65.01
64908;BME280;64365;-1.756;110.040;2022-10-16T11:23:21;101482.25;;;18.68;65.67
64908;BME280;64365;-1.756;110.040;2022-10-16T11:25:51;101485.06;;;18.92;63.39
64908;BME280;64365;-1.756;110.040;2022-10-16T11:28:23;101481.84;;;19.05;63.59
64908;BME280;64365;-1.756;110.040;2022-10-16T11:30:57;101474.28;;;19.23;63.49
64908;BME280;64365;-1.756;110.040;2022-10-16T11:33:28;101479.34;;;19.45;61.87
64908;BME280;64365;-1.756;110.040;2022-10-16T11:36:00;101483.59;;;19.46;60.16
64908;BME280;64365;-1.756;110.040;2022-10-16T11:38:30;101470.03;;;19.49;60.39
64908;BME280;64365;-1.756;110.040;2022-10-16T11:41:03;101496.50;;;19.58;59.13
64908;BME280;64365;-1.756;110.040;2022-10-16T11:43:38;101496.78;;;19.64;56.22
64908;BME280;64365;-1.756;110.040;2022-10-16T11:46:14;101496.25;;;19.49;56.71
64908;BME280;64365;-1.756;110.040;2022-10-16T11:48:46;101485.44;;;19.49;56.02
64908;BME280;64365;-1.756;110.040;2022-10-16T11:51:17;101485.56;;;19.42;57.34
64908;BME280;64365;-1.756;110.040;2022-10-16T11:53:53;101498.09;;;19.52;56.19
64908;BME280;64365;-1.756;110.040;2022-10-16T11:56:26;101498.81;;;19.56;55.47
64908;BME280;64365;-1.756;110.040;2022-10-16T11:58:58;101500.47;;;19.50;55.07
64908;BME280;64365;-1.756;110.040;2022-10-16T12:01:31;101507.34;;;19.51;55.17
64908;BME280;64365;-1.756;110.040;2022-10-16T12:04:14;101496.41;;;19.38;55.33
64908;BME280;64365;-1.756;110.040;2022-10-16T12:06:46;101509.88;;;19.38;55.34
64908;BME280;64365;-1.756;110.040;2022-10-16T12:09:20;101506.66;;;19.47;55.24
64908;BME280;64365;-1.756;110.040;2022-10-16T12:11:49;101495.00;;;19.53;55.06
64908;BME280;64365;-1.756;110.040;2022-10-16T12:14:22;101509.44;;;19.67;52.88
64908;BME280;64365;-1.756;110.040;2022-10-16T12:17:00;101516.06;;;19.62;52.30
64908;BME280;64365;-1.756;110.040;2022-10-16T12:19:28;101518.06;;;19.58;53.21
64908;BME280;64365;-1.756;110.040;2022-10-16T12:21:57;101519.34;;;19.74;53.25
64908;BME280;64365;-1.756;110.040;2022-10-16T12:24:33;101516.09;;;19.86;52.15
64908;BME280;64365;-1.756;110.040;2022-10-16T12:27:02;101520.56;;;19.96;52.20
64908;BME280;64365;-1.756;110.040;2022-10-16T12:29:34;101522.44;;;19.99;51.62
64908;BME280;64365;-1.756;110.040;2022-10-16T12:32:02;101528.13;;;20.05;52.89
64908;BME280;64365;-1.756;110.040;2022-10-16T12:34:38;101534.03;;;20.20;53.39
64908;BME280;64365;-1.756;110.040;2022-10-16T12:37:13;101537.75;;;20.30;51.66
64908;BME280;64365;-1.756;110.040;2022-10-16T12:39:41;101523.97;;;20.24;51.44
64908;BME280;64365;-1.756;110.040;2022-10-16T12:42:23;101532.06;;;20.24;52.32